Time;durP1;ratioP1;P1;durP2;ratioP2;P2;SDS_P1;SDS_P2;PMS_P1;PMS_P2;Temp;Humidity;BMP_temperature;BMP_pressure;BME280_temperature;BME280_humidity;BME280_pressure;Samples;Min_cycle;Max_cycle;Signal;HPM_P1;HPM_P2
2023/05/12 00:03:36;;;;;;;2.38;0.90;;;;;;;;;;10449909;28;20296;-78
2023/05/12 00:08:37;;;;;;;1.00;1.00;;;;;;;;;;10442999;28;20232;-77
2023/05/12 00:13:38;;;;;;;1.30;1.30;;;;;;;;;;10453935;28;20777;-77
2023/05/12 00:18:39;;;;;;;1.17;1.00;;;;;;;;;;10451355;28;20303;-76
2023/05/12 00:23:40;;;;;;;1.13;1.05;;;;;;;;;;10466712;28;20321;-77
2023/05/12 00:28:41;;;;;;;0.90;0.90;;;;;;;;;;10472833;28;20243;-78
2023/05/12 00:33:42;;;;;;;1.10;1.10;;;;;;;;;;10446893;28;20229;-77
2023/05/12 00:38:43;;;;;;;1.10;1.10;;;;;;;;;;10441283;28;20592;-77
2023/05/12 00:43:44;;;;;;;1.00;1.00;;;;;;;;;;10471725;28;20218;-79
2023/05/12 00:48:46;;;;;;;0.90;0.90;;;;;;;;;;10452594;28;20309;-77
2023/05/12 00:53:47;;;;;;;1.90;1.10;;;;;;;;;;10443197;28;20747;-77
2023/05/12 00:58:48;;;;;;;1.40;1.30;;;;;;;;;;10464322;28;20940;-75
2023/05/12 01:03:51;;;;;;;0.90;0.90;;;;;;;;;;10428615;28;20304;-78
2023/05/12 01:08:52;;;;;;;1.10;1.10;;;;;;;;;;10454728;28;20671;-79
2023/05/12 01:13:53;;;;;;;1.25;1.25;;;;;;;;;;10444280;28;20225;-76
2023/05/12 01:18:55;;;;;;;1.20;1.20;;;;;;;;;;10447564;28;20598;-79
2023/05/12 01:24:02;;;;;;;1.40;1.40;;;;;;;;;;10431126;28;20214;-76
2023/05/12 01:29:04;;;;;;;1.63;1.63;;;;;;;;;;10454630;28;20219;-76
2023/05/12 01:34:05;;;;;;;2.08;1.80;;;;;;;;;;10472715;28;20217;-78
2023/05/12 01:39:06;;;;;;;1.75;1.58;;;;;;;;;;10462987;28;20989;-77
2023/05/12 01:44:08;;;;;;;1.67;1.67;;;;;;;;;;10450451;28;20696;-77
2023/05/12 01:49:09;;;;;;;1.42;1.42;;;;;;;;;;10435216;28;20682;-78
2023/05/12 01:54:11;;;;;;;1.73;1.65;;;;;;;;;;10438362;28;20222;-78
2023/05/12 01:59:13;;;;;;;2.03;2.00;;;;;;;;;;10448846;28;20208;-77
2023/05/12 02:04:14;;;;;;;3.55;2.40;;;;;;;;;;10449530;28;20217;-77
2023/05/12 02:09:17;;;;;;;2.65;2.55;;;;;;;;;;10439921;28;20222;-77
2023/05/12 02:14:19;;;;;;;2.17;2.08;;;;;;;;;;10456561;28;20325;-77
2023/05/12 02:19:20;;;;;;;2.17;2.15;;;;;;;;;;10449449;28;20223;-79
2023/05/12 02:24:21;;;;;;;2.25;2.25;;;;;;;;;;10466596;28;20206;-77
2023/05/12 02:29:23;;;;;;;2.20;2.10;;;;;;;;;;10458301;28;20221;-78
2023/05/12 02:34:24;;;;;;;2.65;2.55;;;;;;;;;;10464629;28;20343;-78
2023/05/12 02:39:25;;;;;;;2.40;2.33;;;;;;;;;;10477034;28;20233;-79
2023/05/12 02:44:26;;;;;;;1.83;1.83;;;;;;;;;;10465478;28;20217;-76
2023/05/12 02:49:27;;;;;;;1.88;1.88;;;;;;;;;;10475198;28;20237;-78
2023/05/12 02:54:28;;;;;;;2.35;2.35;;;;;;;;;;10459704;28;20640;-79
2023/05/12 02:59:29;;;;;;;3.53;2.47;;;;;;;;;;10450061;28;20241;-78
2023/05/12 03:04:31;;;;;;;2.30;2.20;;;;;;;;;;10457818;28;20299;-78
2023/05/12 03:09:33;;;;;;;2.20;2.10;;;;;;;;;;10466228;28;20209;-80
2023/05/12 03:14:33;;;;;;;3.47;2.78;;;;;;;;;;10478432;28;20244;-75
2023/05/12 03:19:34;;;;;;;2.35;2.35;;;;;;;;;;10468723;28;20213;-78
2023/05/12 03:24:35;;;;;;;2.55;2.45;;;;;;;;;;10470670;28;20214;-78
2023/05/12 03:29:36;;;;;;;2.97;2.88;;;;;;;;;;10492736;28;20213;-78
2023/05/12 03:34:37;;;;;;;2.58;2.47;;;;;;;;;;10470445;28;20221;-79
2023/05/12 03:39:39;;;;;;;3.17;2.85;;;;;;;;;;10465620;28;20961;-78
2023/05/12 03:44:40;;;;;;;3.03;2.90;;;;;;;;;;10486630;28;20266;-76
2023/05/12 03:49:41;;;;;;;4.30;2.95;;;;;;;;;;10443940;28;20225;-77
2023/05/12 03:54:42;;;;;;;6.55;2.50;;;;;;;;;;10464870;28;21064;-77
2023/05/12 03:59:43;;;;;;;3.20;3.05;;;;;;;;;;10465210;28;20217;-79
2023/05/12 04:04:44;;;;;;;3.10;3.00;;;;;;;;;;10455373;28;20297;-77
2023/05/12 04:09:45;;;;;;;5.45;3.05;;;;;;;;;;10480037;28;20217;-79
2023/05/12 04:14:47;;;;;;;3.67;3.58;;;;;;;;;;10468625;28;20714;-78
2023/05/12 04:19:48;;;;;;;3.17;3.08;;;;;;;;;;10464850;28;20699;-79
2023/05/12 04:24:49;;;;;;;3.00;2.90;;;;;;;;;;10457464;28;20221;-75
2023/05/12 04:29:50;;;;;;;3.47;3.17;;;;;;;;;;10469333;28;20360;-77
2023/05/12 04:34:54;;;;;;;3.13;3.00;;;;;;;;;;10457531;28;20210;-78
2023/05/12 04:39:55;;;;;;;3.35;3.15;;;;;;;;;;10477788;28;20226;-78
2023/05/12 04:44:56;;;;;;;3.88;3.47;;;;;;;;;;10462631;28;20213;-77
2023/05/12 04:49:57;;;;;;;3.28;3.08;;;;;;;;;;10451099;28;20944;-78
2023/05/12 04:54:58;;;;;;;4.15;3.78;;;;;;;;;;10478845;28;20222;-78
2023/05/12 05:00:03;;;;;;;2.85;2.75;;;;;;;;;;10425033;28;20217;-78
2023/05/12 05:05:05;;;;;;;4.43;2.92;;;;;;;;;;10461792;28;20296;-78
2023/05/12 05:10:06;;;;;;;3.47;3.38;;;;;;;;;;10443173;28;20221;-77
2023/05/12 05:15:10;;;;;;;3.92;3.72;;;;;;;;;;10477484;28;20212;-77
2023/05/12 05:20:11;;;;;;;4.03;3.45;;;;;;;;;;10468534;28;20751;-77
2023/05/12 05:25:13;;;;;;;4.13;3.92;;;;;;;;;;10448373;28;20824;-80
2023/05/12 05:30:14;;;;;;;4.32;3.70;;;;;;;;;;10443645;28;20330;-78
2023/05/12 05:35:15;;;;;;;4.20;3.75;;;;;;;;;;10446152;28;20377;-80
2023/05/12 05:40:21;;;;;;;3.53;3.40;;;;;;;;;;10451886;28;20790;-80
2023/05/12 05:45:22;;;;;;;5.90;3.58;;;;;;;;;;10467858;28;20288;-79
2023/05/12 05:50:24;;;;;;;3.83;3.63;;;;;;;;;;10430941;28;20341;-79
2023/05/12 05:55:25;;;;;;;3.55;3.45;;;;;;;;;;10452469;28;20214;-81
2023/05/12 06:00:27;;;;;;;3.85;3.53;;;;;;;;;;10455530;28;20230;-79
2023/05/12 06:05:28;;;;;;;4.20;3.90;;;;;;;;;;10441591;28;20244;-79
2023/05/12 06:10:29;;;;;;;4.32;4.07;;;;;;;;;;10460289;28;20213;-80
2023/05/12 06:15:30;;;;;;;4.63;4.03;;;;;;;;;;10455724;28;20225;-80
2023/05/12 06:20:32;;;;;;;5.03;3.50;;;;;;;;;;10448333;28;20229;-80
2023/05/12 06:25:33;;;;;;;4.88;3.65;;;;;;;;;;10465051;28;20240;-78
2023/05/12 06:30:35;;;;;;;4.15;3.95;;;;;;;;;;10433074;28;20295;-78
2023/05/12 06:35:36;;;;;;;3.72;3.35;;;;;;;;;;10469819;28;20240;-78
2023/05/12 06:40:39;;;;;;;6.85;4.13;;;;;;;;;;10455697;28;20699;-79
2023/05/12 06:45:40;;;;;;;3.60;3.40;;;;;;;;;;10458467;28;20320;-77
2023/05/12 06:50:42;;;;;;;5.20;3.67;;;;;;;;;;10443949;28;20340;-79
2023/05/12 06:55:45;;;;;;;5.15;3.80;;;;;;;;;;10458584;28;20222;-80
2023/05/12 07:00:46;;;;;;;3.80;3.47;;;;;;;;;;10472166;28;20217;-80
2023/05/12 07:05:47;;;;;;;3.75;3.65;;;;;;;;;;10472845;28;20224;-78
2023/05/12 07:10:48;;;;;;;4.72;3.58;;;;;;;;;;10502327;28;20213;-81
2023/05/12 07:15:49;;;;;;;4.32;3.67;;;;;;;;;;10498703;28;20221;-81
2023/05/12 07:20:50;;;;;;;5.13;3.70;;;;;;;;;;10488072;28;20228;-81
2023/05/12 07:25:54;;;;;;;4.13;3.80;;;;;;;;;;10489597;28;20814;-79
2023/05/12 07:31:04;;;;;;;5.13;3.63;;;;;;;;;;10474268;28;20225;-82
2023/05/12 07:36:21;;;;;;;4.68;3.40;;;;;;;;;;10498835;28;20223;-81
2023/05/12 07:41:30;;;;;;;3.63;3.20;;;;;;;;;;10477465;28;20214;-82
2023/05/12 07:46:38;;;;;;;3.72;3.13;;;;;;;;;;10471020;28;20316;-83
2023/05/12 07:51:46;;;;;;;5.47;4.15;;;;;;;;;;10483057;28;20651;-83
2023/05/12 07:57:18;;;;;;;7.55;3.55;;;;;;;;;;10496881;28;20245;-81
2023/05/12 08:02:46;;;;;;;3.20;3.00;;;;;;;;;;10459840;28;20263;-82
2023/05/12 08:08:20;;;;;;;4.18;2.83;;;;;;;;;;10475756;28;20286;-83
2023/05/12 08:13:22;;;;;;;3.28;3.08;;;;;;;;;;10478958;28;20232;-81
2023/05/12 08:18:35;;;;;;;3.05;2.83;;;;;;;;;;10500291;28;20579;-80
2023/05/12 08:23:39;;;;;;;3.03;2.80;;;;;;;;;;10460140;28;20462;-82
2023/05/12 08:29:03;;;;;;;2.80;2.67;;;;;;;;;;10500731;28;20210;-80
2023/05/12 08:34:14;;;;;;;3.08;2.85;;;;;;;;;;10477662;28;20336;-82
2023/05/12 08:39:15;;;;;;;6.53;2.80;;;;;;;;;;10452376;28;20225;-80
2023/05/12 08:44:18;;;;;;;4.10;2.78;;;;;;;;;;10469941;28;20230;-83
2023/05/12 08:49:20;;;;;;;2.50;2.40;;;;;;;;;;10462699;28;20228;-82
2023/05/12 08:54:21;;;;;;;2.33;2.22;;;;;;;;;;10463844;28;20215;-82
2023/05/12 08:59:23;;;;;;;3.15;1.40;;;;;;;;;;10455047;28;20210;-76
2023/05/12 09:04:24;;;;;;;4.57;1.50;;;;;;;;;;10460386;28;20282;-81
2023/05/12 09:09:27;;;;;;;1.60;1.60;;;;;;;;;;10479815;28;20214;-80
2023/05/12 09:14:33;;;;;;;3.13;2.03;;;;;;;;;;10485700;28;20869;-83
2023/05/12 09:19:34;;;;;;;1.40;1.40;;;;;;;;;;10480899;28;20217;-80
2023/05/12 09:24:36;;;;;;;1.50;1.50;;;;;;;;;;10466570;28;20213;-79
2023/05/12 09:29:47;;;;;;;1.50;1.40;;;;;;;;;;10471654;28;20213;-81
2023/05/12 09:34:50;;;;;;;1.38;1.38;;;;;;;;;;10479050;28;20220;-80
2023/05/12 09:39:59;;;;;;;2.63;1.50;;;;;;;;;;10458611;28;20259;-82
2023/05/12 09:45:10;;;;;;;1.45;1.30;;;;;;;;;;10491371;28;20300;-81
2023/05/12 09:50:11;;;;;;;1.38;1.38;;;;;;;;;;10470770;28;20240;-81
2023/05/12 09:55:12;;;;;;;2.65;1.20;;;;;;;;;;10495304;28;22189;-81
2023/05/12 10:00:16;;;;;;;2.03;1.35;;;;;;;;;;10453930;28;20226;-79
2023/05/12 10:05:19;;;;;;;3.28;1.15;;;;;;;;;;10484463;28;20205;-79
2023/05/12 10:10:24;;;;;;;1.52;1.42;;;;;;;;;;10473909;28;20205;-80
2023/05/12 10:15:26;;;;;;;1.10;1.10;;;;;;;;;;10472449;28;20208;-79
2023/05/12 10:20:27;;;;;;;1.77;1.13;;;;;;;;;;10432412;28;20229;-80
2023/05/12 10:25:28;;;;;;;1.10;1.10;;;;;;;;;;10450689;28;20982;-80
2023/05/12 10:30:30;;;;;;;2.00;1.70;;;;;;;;;;10488770;28;20213;-80
2023/05/12 10:35:32;;;;;;;1.50;0.90;;;;;;;;;;10465207;28;20219;-80
2023/05/12 10:40:33;;;;;;;1.85;1.20;;;;;;;;;;10453047;28;20587;-81
2023/05/12 10:45:36;;;;;;;2.03;1.00;;;;;;;;;;10475751;28;20225;-79
2023/05/12 10:50:37;;;;;;;1.00;1.00;;;;;;;;;;10468618;28;20217;-81
2023/05/12 10:55:46;;;;;;;1.33;1.33;;;;;;;;;;10447596;28;20235;-80
2023/05/12 11:00:50;;;;;;;1.40;1.30;;;;;;;;;;10465774;28;20236;-81
2023/05/12 11:05:59;;;;;;;1.08;1.08;;;;;;;;;;10469716;28;20221;-80
2023/05/12 11:11:01;;;;;;;1.17;1.17;;;;;;;;;;10444166;28;20213;-80
2023/05/12 11:16:01;;;;;;;1.52;1.00;;;;;;;;;;10451993;28;20599;-81
2023/05/12 11:21:08;;;;;;;1.42;1.05;;;;;;;;;;10471635;28;20328;-80
2023/05/12 11:26:16;;;;;;;4.63;1.10;;;;;;;;;;10458504;28;20221;-80
2023/05/12 11:31:20;;;;;;;1.10;1.10;;;;;;;;;;10462552;28;20217;-82
2023/05/12 11:36:21;;;;;;;1.33;1.33;;;;;;;;;;10465707;28;20591;-81
2023/05/12 11:41:23;;;;;;;2.58;1.10;;;;;;;;;;10461135;28;20216;-81
2023/05/12 11:46:27;;;;;;;1.08;1.08;;;;;;;;;;10466048;28;20751;-83
2023/05/12 11:51:29;;;;;;;1.10;1.10;;;;;;;;;;10482664;28;20384;-79
2023/05/12 11:56:30;;;;;;;1.70;1.23;;;;;;;;;;10456334;28;20221;-82
2023/05/12 12:01:33;;;;;;;1.30;1.30;;;;;;;;;;10468179;28;20260;-81
2023/05/12 12:06:42;;;;;;;3.13;1.10;;;;;;;;;;10457870;28;20303;-81
2023/05/12 12:11:43;;;;;;;1.30;1.30;;;;;;;;;;10454499;28;20984;-82
2023/05/12 12:16:44;;;;;;;1.85;1.10;;;;;;;;;;10458947;28;20227;-80
2023/05/12 12:21:45;;;;;;;1.60;1.60;;;;;;;;;;10464668;28;20206;-79
2023/05/12 12:26:46;;;;;;;1.30;1.30;;;;;;;;;;10445796;28;20248;-79
2023/05/12 12:31:47;;;;;;;2.35;1.13;;;;;;;;;;10438096;28;20224;-79
2023/05/12 12:36:48;;;;;;;1.55;1.30;;;;;;;;;;10430150;28;20938;-77
2023/05/12 12:41:49;;;;;;;1.38;1.27;;;;;;;;;;10438478;28;20217;-80
2023/05/12 12:46:50;;;;;;;4.18;1.35;;;;;;;;;;10440363;28;20225;-79
2023/05/12 12:51:51;;;;;;;4.55;1.73;;;;;;;;;;10454118;28;20236;-77
2023/05/12 12:56:52;;;;;;;1.20;1.20;;;;;;;;;;10444811;28;20250;-80
2023/05/12 13:01:53;;;;;;;1.13;1.13;;;;;;;;;;10468354;28;20221;-78
2023/05/12 13:06:54;;;;;;;1.27;1.27;;;;;;;;;;10475162;28;20222;-78
2023/05/12 13:11:56;;;;;;;5.95;1.40;;;;;;;;;;10467431;28;20699;-80
2023/05/12 13:16:57;;;;;;;1.90;1.60;;;;;;;;;;10475582;28;20209;-78
2023/05/12 13:21:58;;;;;;;1.77;1.42;;;;;;;;;;10475621;28;20221;-77
2023/05/12 13:26:59;;;;;;;3.40;1.25;;;;;;;;;;10470959;28;20229;-79
2023/05/12 13:32:00;;;;;;;1.20;1.20;;;;;;;;;;10493022;28;20218;-78
2023/05/12 13:37:02;;;;;;;2.40;1.10;;;;;;;;;;10483942;28;20554;-78
2023/05/12 13:42:03;;;;;;;1.10;1.10;;;;;;;;;;10481595;28;20217;-79
2023/05/12 13:47:06;;;;;;;4.78;1.70;;;;;;;;;;10453529;28;20273;-79
2023/05/12 13:52:07;;;;;;;1.65;1.55;;;;;;;;;;10486287;28;20222;-79
2023/05/12 13:57:08;;;;;;;3.80;1.52;;;;;;;;;;10462353;28;20714;-76
2023/05/12 14:02:10;;;;;;;1.50;1.33;;;;;;;;;;10453348;28;20586;-79
2023/05/12 14:07:11;;;;;;;1.30;1.30;;;;;;;;;;10455580;28;20282;-76
2023/05/12 14:12:13;;;;;;;4.82;1.30;;;;;;;;;;10447597;28;20256;-78
2023/05/12 14:17:14;;;;;;;1.30;1.20;;;;;;;;;;10473374;28;20916;-79
2023/05/12 14:22:15;;;;;;;1.80;1.13;;;;;;;;;;10482358;28;20217;-77
2023/05/12 14:27:16;;;;;;;1.40;1.40;;;;;;;;;;10480491;28;20217;-78
2023/05/12 14:32:17;;;;;;;1.35;1.35;;;;;;;;;;10480250;28;20214;-80
2023/05/12 14:37:18;;;;;;;2.33;1.10;;;;;;;;;;10455079;28;20214;-79
2023/05/12 14:42:19;;;;;;;3.00;1.10;;;;;;;;;;10481243;28;20700;-80
2023/05/12 14:47:20;;;;;;;1.45;1.35;;;;;;;;;;10488984;28;20341;-79
2023/05/12 14:52:21;;;;;;;1.83;1.40;;;;;;;;;;10470500;28;20305;-77
2023/05/12 14:57:22;;;;;;;2.67;1.20;;;;;;;;;;10458785;28;20731;-79
2023/05/12 15:02:23;;;;;;;2.83;2.60;;;;;;;;;;10484611;28;20210;-80
2023/05/12 15:07:24;;;;;;;1.65;1.30;;;;;;;;;;10480259;28;20217;-79
2023/05/12 15:12:26;;;;;;;2.75;1.23;;;;;;;;;;10488478;28;20217;-78
2023/05/12 15:17:27;;;;;;;1.23;1.20;;;;;;;;;;10463722;28;21051;-79
2023/05/12 15:22:30;;;;;;;1.60;1.55;;;;;;;;;;10488355;28;20300;-82
2023/05/12 15:27:32;;;;;;;1.35;1.35;;;;;;;;;;10482766;28;20245;-79
2023/05/12 15:32:33;;;;;;;1.90;1.40;;;;;;;;;;10489817;28;20217;-77
2023/05/12 15:37:34;;;;;;;2.63;1.20;;;;;;;;;;10466062;28;20255;-80
2023/05/12 15:42:35;;;;;;;4.90;1.60;;;;;;;;;;10480239;28;20221;-80
2023/05/12 15:47:36;;;;;;;4.15;1.60;;;;;;;;;;10453349;28;20695;-77
2023/05/12 15:52:37;;;;;;;2.53;1.13;;;;;;;;;;10487782;28;20226;-79
2023/05/12 15:57:38;;;;;;;12.20;1.55;;;;;;;;;;10460776;28;20230;-79
2023/05/12 16:02:39;;;;;;;3.45;1.58;;;;;;;;;;10456054;28;20210;-79
2023/05/12 16:07:42;;;;;;;3.85;1.33;;;;;;;;;;10464142;28;20734;-77
2023/05/12 16:12:45;;;;;;;2.75;1.35;;;;;;;;;;10463152;28;20308;-78
2023/05/12 16:17:46;;;;;;;4.15;1.45;;;;;;;;;;10457579;28;20218;-79
2023/05/12 16:22:47;;;;;;;3.45;1.30;;;;;;;;;;10477272;28;20303;-77
2023/05/12 16:27:48;;;;;;;4.60;1.05;;;;;;;;;;10464855;28;20223;-79
2023/05/12 16:32:49;;;;;;;1.42;1.38;;;;;;;;;;10486095;28;20218;-80
2023/05/12 16:37:51;;;;;;;1.02;1.02;;;;;;;;;;10478250;28;20215;-79
2023/05/12 16:42:53;;;;;;;7.53;1.10;;;;;;;;;;10461353;28;20287;-79
2023/05/12 16:47:54;;;;;;;1.10;1.10;;;;;;;;;;10449068;28;20219;-79
2023/05/12 16:52:56;;;;;;;0.85;0.85;;;;;;;;;;10452306;28;20216;-77
2023/05/12 16:57:57;;;;;;;2.05;1.30;;;;;;;;;;10469126;28;20635;-78
2023/05/12 17:02:58;;;;;;;1.52;1.42;;;;;;;;;;10458037;28;20217;-78
2023/05/12 17:07:59;;;;;;;1.33;1.30;;;;;;;;;;10480384;28;20262;-79
2023/05/12 17:13:00;;;;;;;3.10;1.20;;;;;;;;;;10438141;28;20209;-79
2023/05/12 17:18:01;;;;;;;0.98;0.98;;;;;;;;;;10469618;28;20592;-77
2023/05/12 17:23:02;;;;;;;3.20;1.50;;;;;;;;;;10470334;28;21598;-79
2023/05/12 17:28:03;;;;;;;4.43;1.10;;;;;;;;;;10469824;28;20218;-79
2023/05/12 17:33:06;;;;;;;1.48;1.42;;;;;;;;;;10446710;28;20720;-77
2023/05/12 17:38:07;;;;;;;1.75;1.10;;;;;;;;;;10468882;28;20217;-75
2023/05/12 17:43:08;;;;;;;1.33;1.33;;;;;;;;;;10466112;28;20989;-76
2023/05/12 17:48:10;;;;;;;1.05;1.05;;;;;;;;;;10448746;28;20238;-80
2023/05/12 17:53:11;;;;;;;1.67;1.33;;;;;;;;;;10466882;28;20912;-79
2023/05/12 17:58:12;;;;;;;1.30;1.20;;;;;;;;;;10483368;28;20217;-80
2023/05/12 18:03:13;;;;;;;1.10;1.10;;;;;;;;;;10471405;28;20202;-80
2023/05/12 18:08:15;;;;;;;1.60;1.60;;;;;;;;;;10445075;28;20356;-78
2023/05/12 18:13:16;;;;;;;3.40;1.33;;;;;;;;;;10469096;28;20240;-79
2023/05/12 18:18:17;;;;;;;2.15;1.25;;;;;;;;;;10488518;28;20336;-79
2023/05/12 18:23:18;;;;;;;1.88;1.77;;;;;;;;;;10452858;28;20225;-79
2023/05/12 18:28:19;;;;;;;1.52;1.38;;;;;;;;;;10486232;28;20222;-80
2023/05/12 18:33:20;;;;;;;1.70;1.70;;;;;;;;;;10486640;28;20218;-79
2023/05/12 18:38:21;;;;;;;1.92;1.30;;;;;;;;;;10470968;28;20285;-78
2023/05/12 18:43:22;;;;;;;1.45;1.45;;;;;;;;;;10490093;28;20213;-79
2023/05/12 18:48:24;;;;;;;1.67;1.20;;;;;;;;;;10488799;28;20225;-81
2023/05/12 18:53:25;;;;;;;3.50;1.42;;;;;;;;;;10479245;28;20245;-80
2023/05/12 18:58:26;;;;;;;1.23;1.17;;;;;;;;;;10470750;28;20825;-81
2023/05/12 19:03:27;;;;;;;3.60;1.63;;;;;;;;;;10473890;28;20221;-81
2023/05/12 19:08:28;;;;;;;4.78;1.17;;;;;;;;;;10486791;28;20510;-78
2023/05/12 19:13:29;;;;;;;1.85;1.73;;;;;;;;;;10485296;28;20228;-78
2023/05/12 19:18:30;;;;;;;1.77;1.73;;;;;;;;;;10467585;28;20225;-77
2023/05/12 19:23:31;;;;;;;6.78;1.40;;;;;;;;;;10462949;28;20223;-76
2023/05/12 19:28:32;;;;;;;2.88;1.63;;;;;;;;;;10467987;28;20255;-78
2023/05/12 19:33:34;;;;;;;4.80;1.65;;;;;;;;;;10482038;28;20229;-77
2023/05/12 19:38:35;;;;;;;1.30;1.30;;;;;;;;;;10480592;28;20217;-76
2023/05/12 19:43:36;;;;;;;2.03;1.67;;;;;;;;;;10479850;28;20245;-75
2023/05/12 19:48:37;;;;;;;1.50;1.50;;;;;;;;;;10482911;28;20234;-75
2023/05/12 19:53:38;;;;;;;1.70;1.60;;;;;;;;;;10443788;28;20262;-76
2023/05/12 19:58:39;;;;;;;1.48;1.45;;;;;;;;;;10445930;28;20222;-77
2023/05/12 20:03:40;;;;;;;1.85;1.63;;;;;;;;;;10447115;28;20271;-81
2023/05/12 20:08:41;;;;;;;4.45;1.40;;;;;;;;;;10458584;28;20224;-78
2023/05/12 20:13:42;;;;;;;1.63;1.52;;;;;;;;;;10477820;28;20221;-79
2023/05/12 20:18:43;;;;;;;1.55;1.55;;;;;;;;;;10436079;28;20234;-78
2023/05/12 20:23:44;;;;;;;1.65;1.60;;;;;;;;;;10461099;28;20216;-78
2023/05/12 20:28:45;;;;;;;1.80;1.70;;;;;;;;;;10455552;28;20966;-79
2023/05/12 20:33:46;;;;;;;1.60;1.60;;;;;;;;;;10471350;28;20224;-76
2023/05/12 20:38:47;;;;;;;4.32;1.83;;;;;;;;;;10482115;28;20217;-76
2023/05/12 20:43:48;;;;;;;1.60;1.60;;;;;;;;;;10483242;28;20249;-77
2023/05/12 20:48:49;;;;;;;2.03;1.90;;;;;;;;;;10482856;28;20319;-76
2023/05/12 20:53:51;;;;;;;2.08;1.60;;;;;;;;;;10445852;28;20220;-77
2023/05/12 20:58:52;;;;;;;2.65;1.60;;;;;;;;;;10486990;28;20248;-77
2023/05/12 21:03:53;;;;;;;2.58;1.45;;;;;;;;;;10461030;28;20221;-75
2023/05/12 21:08:58;;;;;;;1.30;1.30;;;;;;;;;;10478916;28;20372;-81
2023/05/12 21:14:00;;;;;;;3.50;1.70;;;;;;;;;;10467246;28;20264;-76
2023/05/12 21:19:01;;;;;;;2.08;1.80;;;;;;;;;;10476813;28;20659;-76
2023/05/12 21:24:02;;;;;;;4.65;1.80;;;;;;;;;;10465398;28;20270;-77
2023/05/12 21:29:03;;;;;;;1.77;1.50;;;;;;;;;;10480543;28;20599;-77
2023/05/12 21:34:04;;;;;;;7.53;1.67;;;;;;;;;;10465910;28;20302;-79
2023/05/12 21:39:06;;;;;;;1.77;1.67;;;;;;;;;;10450500;28;20786;-77
2023/05/12 21:44:07;;;;;;;1.70;1.60;;;;;;;;;;10487319;28;20711;-78
2023/05/12 21:49:08;;;;;;;1.13;1.10;;;;;;;;;;10494646;28;20231;-76
2023/05/12 21:54:09;;;;;;;2.20;1.60;;;;;;;;;;10467804;28;20860;-78
2023/05/12 21:59:10;;;;;;;1.92;1.83;;;;;;;;;;10494506;28;20244;-75
2023/05/12 22:04:10;;;;;;;1.73;1.60;;;;;;;;;;10441197;28;20222;-77
2023/05/12 22:09:14;;;;;;;6.18;1.85;;;;;;;;;;10467545;28;20267;-77
2023/05/12 22:14:15;;;;;;;2.00;1.65;;;;;;;;;;10490178;28;20221;-78
2023/05/12 22:19:16;;;;;;;1.70;1.60;;;;;;;;;;10472815;28;20312;-79
2023/05/12 22:24:17;;;;;;;4.70;2.10;;;;;;;;;;10479923;28;21059;-78
2023/05/12 22:29:18;;;;;;;2.10;1.55;;;;;;;;;;10492204;28;20221;-77
2023/05/12 22:34:19;;;;;;;2.03;1.80;;;;;;;;;;10469995;28;20216;-77
2023/05/12 22:39:20;;;;;;;1.98;1.90;;;;;;;;;;10470375;28;20307;-77
2023/05/12 22:44:21;;;;;;;2.92;1.70;;;;;;;;;;10474443;28;20623;-77
2023/05/12 22:49:22;;;;;;;1.85;1.30;;;;;;;;;;10473435;28;20714;-77
2023/05/12 22:54:23;;;;;;;1.75;1.70;;;;;;;;;;10445721;28;20217;-76
2023/05/12 22:59:24;;;;;;;1.77;1.67;;;;;;;;;;10491208;28;20212;-78
2023/05/12 23:04:25;;;;;;;3.65;1.88;;;;;;;;;;10485386;28;20210;-77
2023/05/12 23:09:26;;;;;;;2.20;2.00;;;;;;;;;;10481410;28;20217;-77
2023/05/12 23:14:27;;;;;;;2.75;1.90;;;;;;;;;;10490342;28;20589;-78
2023/05/12 23:19:28;;;;;;;9.48;2.08;;;;;;;;;;10466103;28;20218;-77
2023/05/12 23:24:29;;;;;;;1.98;1.98;;;;;;;;;;10475201;28;20270;-76
2023/05/12 23:29:30;;;;;;;2.00;1.90;;;;;;;;;;10493052;28;20221;-77
2023/05/12 23:34:31;;;;;;;1.83;1.83;;;;;;;;;;10489896;28;20221;-76
2023/05/12 23:39:32;;;;;;;2.20;2.08;;;;;;;;;;10484288;28;20217;-77
2023/05/12 23:44:33;;;;;;;2.72;2.53;;;;;;;;;;10472402;28;20238;-78
2023/05/12 23:49:34;;;;;;;2.53;2.38;;;;;;;;;;10474400;28;20983;-77
2023/05/12 23:54:36;;;;;;;2.45;2.20;;;;;;;;;;10484487;28;20210;-74
2023/05/12 23:59:37;;;;;;;2.35;2.25;;;;;;;;;;10489146;28;21099;-77
